sensor_id;sensor_type;location;lat;lon;timestamp;P1;durP1;ratioP1;P2;durP2;ratioP2
77085;SDS011;66014;53.134;18.006;2023-09-19T00:00:47;15.30;;;11.40;;
77085;SDS011;66014;53.134;18.006;2023-09-19T00:03:34;17.30;;;11.80;;
77085;SDS011;66014;53.134;18.006;2023-09-19T00:06:03;18.30;;;11.50;;
77085;SDS011;66014;53.134;18.006;2023-09-19T00:08:34;14.40;;;10.10;;
77085;SDS011;66014;53.134;18.006;2023-09-19T00:11:01;16.00;;;12.60;;
77085;SDS011;66014;53.134;18.006;2023-09-19T00:13:29;16.70;;;11.50;;
77085;SDS011;66014;53.134;18.006;2023-09-19T00:15:57;17.90;;;12.10;;
77085;SDS011;66014;53.134;18.006;2023-09-19T00:18:25;16.40;;;11.60;;
77085;SDS011;66014;53.134;18.006;2023-09-19T00:20:59;13.80;;;10.70;;
77085;SDS011;66014;53.134;18.006;2023-09-19T00:23:25;17.20;;;12.20;;
77085;SDS011;66014;53.134;18.006;2023-09-19T00:25:52;18.30;;;11.80;;
77085;SDS011;66014;53.134;18.006;2023-09-19T00:28:23;14.60;;;10.50;;
77085;SDS011;66014;53.134;18.006;2023-09-19T00:30:50;15.90;;;11.30;;
77085;SDS011;66014;53.134;18.006;2023-09-19T00:33:17;15.50;;;10.70;;
77085;SDS011;66014;53.134;18.006;2023-09-19T00:35:52;15.40;;;11.10;;
77085;SDS011;66014;53.134;18.006;2023-09-19T00:38:20;15.00;;;9.70;;
77085;SDS011;66014;53.134;18.006;2023-09-19T00:40:49;14.70;;;8.20;;
77085;SDS011;66014;53.134;18.006;2023-09-19T00:43:17;11.80;;;8.50;;
77085;SDS011;66014;53.134;18.006;2023-09-19T00:45:44;14.10;;;7.80;;
77085;SDS011;66014;53.134;18.006;2023-09-19T00:48:16;11.00;;;6.60;;
77085;SDS011;66014;53.134;18.006;2023-09-19T00:50:52;11.60;;;7.20;;
77085;SDS011;66014;53.134;18.006;2023-09-19T00:58:41;11.00;;;5.80;;
77085;SDS011;66014;53.134;18.006;2023-09-19T01:01:07;9.10;;;6.10;;
77085;SDS011;66014;53.134;18.006;2023-09-19T01:03:34;14.30;;;6.00;;
77085;SDS011;66014;53.134;18.006;2023-09-19T01:06:01;9.10;;;6.00;;
77085;SDS011;66014;53.134;18.006;2023-09-19T01:08:28;7.70;;;5.40;;
77085;SDS011;66014;53.134;18.006;2023-09-19T01:10:58;9.30;;;5.40;;
77085;SDS011;66014;53.134;18.006;2023-09-19T01:17:05;9.00;;;5.00;;
77085;SDS011;66014;53.134;18.006;2023-09-19T01:29:43;5.90;;;3.70;;
77085;SDS011;66014;53.134;18.006;2023-09-19T01:39:05;6.10;;;3.60;;
77085;SDS011;66014;53.134;18.006;2023-09-19T01:41:39;5.70;;;3.40;;
77085;SDS011;66014;53.134;18.006;2023-09-19T01:50:17;5.60;;;2.90;;
77085;SDS011;66014;53.134;18.006;2023-09-19T01:53:12;7.70;;;2.90;;
77085;SDS011;66014;53.134;18.006;2023-09-19T01:55:46;4.60;;;2.80;;
77085;SDS011;66014;53.134;18.006;2023-09-19T01:58:18;5.40;;;3.30;;
77085;SDS011;66014;53.134;18.006;2023-09-19T02:00:48;4.20;;;2.90;;
77085;SDS011;66014;53.134;18.006;2023-09-19T02:03:19;4.30;;;2.80;;
77085;SDS011;66014;53.134;18.006;2023-09-19T02:08:22;4.30;;;2.90;;
77085;SDS011;66014;53.134;18.006;2023-09-19T02:10:52;4.40;;;2.90;;
77085;SDS011;66014;53.134;18.006;2023-09-19T02:13:19;6.10;;;3.00;;
77085;SDS011;66014;53.134;18.006;2023-09-19T02:15:47;5.70;;;3.30;;
77085;SDS011;66014;53.134;18.006;2023-09-19T02:18:14;6.90;;;3.20;;
77085;SDS011;66014;53.134;18.006;2023-09-19T02:20:45;5.00;;;3.10;;
77085;SDS011;66014;53.134;18.006;2023-09-19T02:26:39;8.70;;;3.30;;
77085;SDS011;66014;53.134;18.006;2023-09-19T02:29:06;6.40;;;3.80;;
77085;SDS011;66014;53.134;18.006;2023-09-19T02:31:32;6.90;;;3.60;;
77085;SDS011;66014;53.134;18.006;2023-09-19T02:34:00;6.10;;;3.80;;
77085;SDS011;66014;53.134;18.006;2023-09-19T02:36:27;7.20;;;4.30;;
77085;SDS011;66014;53.134;18.006;2023-09-19T02:38:57;8.00;;;4.00;;
77085;SDS011;66014;53.134;18.006;2023-09-19T02:41:23;6.50;;;3.70;;
77085;SDS011;66014;53.134;18.006;2023-09-19T02:43:50;8.20;;;4.10;;
77085;SDS011;66014;53.134;18.006;2023-09-19T02:46:16;7.50;;;3.90;;
77085;SDS011;66014;53.134;18.006;2023-09-19T02:48:43;8.10;;;4.80;;
77085;SDS011;66014;53.134;18.006;2023-09-19T02:51:10;8.90;;;4.70;;
77085;SDS011;66014;53.134;18.006;2023-09-19T02:53:37;12.30;;;5.70;;
77085;SDS011;66014;53.134;18.006;2023-09-19T02:56:07;9.20;;;5.80;;
77085;SDS011;66014;53.134;18.006;2023-09-19T03:02:03;9.70;;;4.40;;
77085;SDS011;66014;53.134;18.006;2023-09-19T03:08:17;11.10;;;5.00;;
77085;SDS011;66014;53.134;18.006;2023-09-19T03:10:49;7.90;;;3.90;;
77085;SDS011;66014;53.134;18.006;2023-09-19T03:13:16;8.70;;;4.80;;
77085;SDS011;66014;53.134;18.006;2023-09-19T03:15:43;8.90;;;4.80;;
77085;SDS011;66014;53.134;18.006;2023-09-19T03:18:16;9.30;;;4.80;;
77085;SDS011;66014;53.134;18.006;2023-09-19T03:20:51;8.00;;;5.50;;
77085;SDS011;66014;53.134;18.006;2023-09-19T03:23:22;8.20;;;4.60;;
77085;SDS011;66014;53.134;18.006;2023-09-19T03:25:49;6.80;;;4.50;;
77085;SDS011;66014;53.134;18.006;2023-09-19T03:28:17;7.00;;;4.40;;
77085;SDS011;66014;53.134;18.006;2023-09-19T03:30:44;8.80;;;4.30;;
77085;SDS011;66014;53.134;18.006;2023-09-19T03:33:11;6.40;;;4.10;;
77085;SDS011;66014;53.134;18.006;2023-09-19T03:35:39;6.70;;;3.80;;
77085;SDS011;66014;53.134;18.006;2023-09-19T03:38:06;9.80;;;3.90;;
77085;SDS011;66014;53.134;18.006;2023-09-19T03:40:33;9.70;;;4.40;;
77085;SDS011;66014;53.134;18.006;2023-09-19T03:43:00;8.20;;;3.60;;
77085;SDS011;66014;53.134;18.006;2023-09-19T03:45:30;7.90;;;3.50;;
77085;SDS011;66014;53.134;18.006;2023-09-19T03:47:58;8.50;;;4.00;;
77085;SDS011;66014;53.134;18.006;2023-09-19T03:50:24;7.20;;;3.90;;
77085;SDS011;66014;53.134;18.006;2023-09-19T03:52:56;7.90;;;3.80;;
77085;SDS011;66014;53.134;18.006;2023-09-19T03:55:23;7.00;;;3.50;;
77085;SDS011;66014;53.134;18.006;2023-09-19T03:57:50;6.80;;;3.90;;
77085;SDS011;66014;53.134;18.006;2023-09-19T04:00:17;6.90;;;3.80;;
77085;SDS011;66014;53.134;18.006;2023-09-19T04:02:48;7.40;;;4.20;;
77085;SDS011;66014;53.134;18.006;2023-09-19T04:08:55;6.50;;;4.10;;
77085;SDS011;66014;53.134;18.006;2023-09-19T04:11:44;8.20;;;3.70;;
77085;SDS011;66014;53.134;18.006;2023-09-19T04:14:14;6.40;;;3.40;;
77085;SDS011;66014;53.134;18.006;2023-09-19T04:16:56;5.80;;;3.70;;
77085;SDS011;66014;53.134;18.006;2023-09-19T04:19:23;7.60;;;3.60;;
77085;SDS011;66014;53.134;18.006;2023-09-19T04:21:54;5.00;;;3.30;;
77085;SDS011;66014;53.134;18.006;2023-09-19T04:24:20;6.80;;;3.20;;
77085;SDS011;66014;53.134;18.006;2023-09-19T04:26:47;6.90;;;3.60;;
77085;SDS011;66014;53.134;18.006;2023-09-19T04:29:14;5.40;;;3.60;;
77085;SDS011;66014;53.134;18.006;2023-09-19T04:31:42;9.20;;;3.00;;
77085;SDS011;66014;53.134;18.006;2023-09-19T04:34:10;6.90;;;3.30;;
77085;SDS011;66014;53.134;18.006;2023-09-19T04:36:42;9.20;;;3.60;;
77085;SDS011;66014;53.134;18.006;2023-09-19T04:39:09;7.40;;;3.50;;
77085;SDS011;66014;53.134;18.006;2023-09-19T04:41:37;7.40;;;3.50;;
77085;SDS011;66014;53.134;18.006;2023-09-19T04:44:09;5.10;;;3.00;;
77085;SDS011;66014;53.134;18.006;2023-09-19T04:46:36;6.30;;;3.40;;
77085;SDS011;66014;53.134;18.006;2023-09-19T04:49:03;6.20;;;3.10;;
77085;SDS011;66014;53.134;18.006;2023-09-19T04:51:29;7.00;;;3.40;;
77085;SDS011;66014;53.134;18.006;2023-09-19T04:54:00;7.80;;;3.70;;
77085;SDS011;66014;53.134;18.006;2023-09-19T04:56:27;8.10;;;3.20;;
77085;SDS011;66014;53.134;18.006;2023-09-19T04:58:55;8.40;;;3.40;;
77085;SDS011;66014;53.134;18.006;2023-09-19T05:01:21;7.40;;;3.40;;
77085;SDS011;66014;53.134;18.006;2023-09-19T05:03:49;9.60;;;3.50;;
77085;SDS011;66014;53.134;18.006;2023-09-19T05:06:19;4.90;;;2.90;;
77085;SDS011;66014;53.134;18.006;2023-09-19T05:08:49;6.20;;;3.30;;
77085;SDS011;66014;53.134;18.006;2023-09-19T05:11:19;5.80;;;2.80;;
77085;SDS011;66014;53.134;18.006;2023-09-19T05:13:54;6.90;;;3.20;;
77085;SDS011;66014;53.134;18.006;2023-09-19T05:16:21;7.10;;;3.00;;
77085;SDS011;66014;53.134;18.006;2023-09-19T05:18:48;6.20;;;3.00;;
77085;SDS011;66014;53.134;18.006;2023-09-19T05:21:15;7.60;;;3.10;;
77085;SDS011;66014;53.134;18.006;2023-09-19T05:23:43;6.60;;;2.90;;
77085;SDS011;66014;53.134;18.006;2023-09-19T05:26:09;5.10;;;3.10;;
77085;SDS011;66014;53.134;18.006;2023-09-19T05:28:38;5.00;;;2.60;;
77085;SDS011;66014;53.134;18.006;2023-09-19T05:31:05;5.40;;;2.60;;
77085;SDS011;66014;53.134;18.006;2023-09-19T05:33:31;8.70;;;3.10;;
77085;SDS011;66014;53.134;18.006;2023-09-19T05:35:59;6.00;;;3.00;;
77085;SDS011;66014;53.134;18.006;2023-09-19T05:38:25;4.20;;;2.90;;
77085;SDS011;66014;53.134;18.006;2023-09-19T05:40:53;5.80;;;3.50;;
77085;SDS011;66014;53.134;18.006;2023-09-19T05:43:20;5.70;;;2.90;;
77085;SDS011;66014;53.134;18.006;2023-09-19T05:45:48;7.40;;;3.10;;
77085;SDS011;66014;53.134;18.006;2023-09-19T05:48:19;8.00;;;2.90;;
77085;SDS011;66014;53.134;18.006;2023-09-19T05:50:47;5.00;;;3.00;;
77085;SDS011;66014;53.134;18.006;2023-09-19T05:53:17;6.40;;;3.20;;
77085;SDS011;66014;53.134;18.006;2023-09-19T05:55:44;7.90;;;3.10;;
77085;SDS011;66014;53.134;18.006;2023-09-19T05:58:11;8.30;;;3.20;;
77085;SDS011;66014;53.134;18.006;2023-09-19T06:00:41;7.40;;;3.30;;
77085;SDS011;66014;53.134;18.006;2023-09-19T06:03:13;7.50;;;3.20;;
77085;SDS011;66014;53.134;18.006;2023-09-19T06:05:40;7.20;;;3.50;;
77085;SDS011;66014;53.134;18.006;2023-09-19T06:08:07;4.90;;;2.90;;
77085;SDS011;66014;53.134;18.006;2023-09-19T06:10:34;6.00;;;2.90;;
77085;SDS011;66014;53.134;18.006;2023-09-19T06:13:04;6.90;;;3.70;;
77085;SDS011;66014;53.134;18.006;2023-09-19T06:15:32;6.80;;;3.00;;
77085;SDS011;66014;53.134;18.006;2023-09-19T06:17:59;5.90;;;3.80;;
77085;SDS011;66014;53.134;18.006;2023-09-19T06:20:29;6.90;;;3.60;;
77085;SDS011;66014;53.134;18.006;2023-09-19T06:23:00;7.30;;;3.50;;
77085;SDS011;66014;53.134;18.006;2023-09-19T06:25:29;4.30;;;3.30;;
77085;SDS011;66014;53.134;18.006;2023-09-19T06:27:56;7.00;;;3.40;;
77085;SDS011;66014;53.134;18.006;2023-09-19T06:30:24;5.00;;;2.90;;
77085;SDS011;66014;53.134;18.006;2023-09-19T06:32:57;8.60;;;3.40;;
77085;SDS011;66014;53.134;18.006;2023-09-19T06:35:25;5.90;;;3.00;;
77085;SDS011;66014;53.134;18.006;2023-09-19T06:37:52;5.10;;;2.80;;
77085;SDS011;66014;53.134;18.006;2023-09-19T06:40:20;5.90;;;3.70;;
77085;SDS011;66014;53.134;18.006;2023-09-19T06:42:51;9.00;;;3.90;;
77085;SDS011;66014;53.134;18.006;2023-09-19T06:45:22;7.20;;;3.50;;
77085;SDS011;66014;53.134;18.006;2023-09-19T06:47:53;9.30;;;3.30;;
77085;SDS011;66014;53.134;18.006;2023-09-19T06:53:05;4.90;;;2.70;;
77085;SDS011;66014;53.134;18.006;2023-09-19T06:55:31;6.50;;;3.60;;
77085;SDS011;66014;53.134;18.006;2023-09-19T06:57:58;5.50;;;3.50;;
77085;SDS011;66014;53.134;18.006;2023-09-19T07:00:25;7.60;;;3.60;;
77085;SDS011;66014;53.134;18.006;2023-09-19T07:05:34;6.10;;;3.60;;
77085;SDS011;66014;53.134;18.006;2023-09-19T07:08:05;8.40;;;4.70;;
77085;SDS011;66014;53.134;18.006;2023-09-19T07:10:33;8.80;;;4.20;;
77085;SDS011;66014;53.134;18.006;2023-09-19T07:13:00;6.00;;;4.00;;
77085;SDS011;66014;53.134;18.006;2023-09-19T07:15:29;8.10;;;4.20;;
77085;SDS011;66014;53.134;18.006;2023-09-19T07:18:02;9.30;;;3.80;;
77085;SDS011;66014;53.134;18.006;2023-09-19T07:20:29;5.70;;;3.90;;
77085;SDS011;66014;53.134;18.006;2023-09-19T07:23:00;6.80;;;3.80;;
77085;SDS011;66014;53.134;18.006;2023-09-19T07:25:27;5.00;;;3.60;;
77085;SDS011;66014;53.134;18.006;2023-09-19T07:27:55;6.70;;;4.00;;
77085;SDS011;66014;53.134;18.006;2023-09-19T07:30:22;7.10;;;4.20;;
77085;SDS011;66014;53.134;18.006;2023-09-19T07:32:49;6.30;;;4.30;;
77085;SDS011;66014;53.134;18.006;2023-09-19T07:35:38;7.50;;;4.00;;
77085;SDS011;66014;53.134;18.006;2023-09-19T07:38:08;8.40;;;4.10;;
77085;SDS011;66014;53.134;18.006;2023-09-19T07:40:37;9.00;;;4.40;;
77085;SDS011;66014;53.134;18.006;2023-09-19T07:43:03;6.10;;;3.50;;
77085;SDS011;66014;53.134;18.006;2023-09-19T07:45:31;6.00;;;3.80;;
77085;SDS011;66014;53.134;18.006;2023-09-19T07:47:58;5.60;;;3.50;;
77085;SDS011;66014;53.134;18.006;2023-09-19T07:50:30;6.30;;;3.40;;
77085;SDS011;66014;53.134;18.006;2023-09-19T07:52:56;7.00;;;4.00;;
77085;SDS011;66014;53.134;18.006;2023-09-19T07:55:23;6.20;;;3.70;;
77085;SDS011;66014;53.134;18.006;2023-09-19T07:57:51;8.90;;;3.70;;
77085;SDS011;66014;53.134;18.006;2023-09-19T08:00:19;8.70;;;4.20;;
77085;SDS011;66014;53.134;18.006;2023-09-19T08:02:46;9.50;;;3.70;;
77085;SDS011;66014;53.134;18.006;2023-09-19T08:05:13;6.60;;;3.50;;
77085;SDS011;66014;53.134;18.006;2023-09-19T08:07:44;7.90;;;3.90;;
77085;SDS011;66014;53.134;18.006;2023-09-19T08:10:15;5.80;;;3.80;;
77085;SDS011;66014;53.134;18.006;2023-09-19T08:12:42;7.20;;;3.20;;
77085;SDS011;66014;53.134;18.006;2023-09-19T08:15:16;5.90;;;4.00;;
77085;SDS011;66014;53.134;18.006;2023-09-19T08:17:46;7.00;;;3.90;;
77085;SDS011;66014;53.134;18.006;2023-09-19T08:20:13;8.10;;;3.90;;
77085;SDS011;66014;53.134;18.006;2023-09-19T08:22:46;5.60;;;3.50;;
77085;SDS011;66014;53.134;18.006;2023-09-19T08:25:24;6.10;;;3.50;;
77085;SDS011;66014;53.134;18.006;2023-09-19T08:27:59;6.60;;;3.30;;
77085;SDS011;66014;53.134;18.006;2023-09-19T08:30:28;5.40;;;3.70;;
77085;SDS011;66014;53.134;18.006;2023-09-19T08:32:57;6.70;;;3.30;;
77085;SDS011;66014;53.134;18.006;2023-09-19T08:35:27;5.60;;;3.50;;
77085;SDS011;66014;53.134;18.006;2023-09-19T08:37:54;5.90;;;3.70;;
77085;SDS011;66014;53.134;18.006;2023-09-19T08:40:21;5.20;;;3.50;;
77085;SDS011;66014;53.134;18.006;2023-09-19T08:42:55;4.80;;;3.30;;
77085;SDS011;66014;53.134;18.006;2023-09-19T08:45:25;5.70;;;3.00;;
77085;SDS011;66014;53.134;18.006;2023-09-19T08:50:56;4.90;;;2.80;;
77085;SDS011;66014;53.134;18.006;2023-09-19T08:56:12;5.80;;;3.10;;
77085;SDS011;66014;53.134;18.006;2023-09-19T08:59:02;6.60;;;3.20;;
77085;SDS011;66014;53.134;18.006;2023-09-19T09:01:29;8.50;;;3.90;;
77085;SDS011;66014;53.134;18.006;2023-09-19T09:03:58;4.20;;;2.60;;
77085;SDS011;66014;53.134;18.006;2023-09-19T09:06:26;5.70;;;2.60;;
77085;SDS011;66014;53.134;18.006;2023-09-19T09:08:54;4.70;;;2.00;;
77085;SDS011;66014;53.134;18.006;2023-09-19T09:11:21;3.60;;;2.10;;
77085;SDS011;66014;53.134;18.006;2023-09-19T09:16:17;4.20;;;1.60;;
77085;SDS011;66014;53.134;18.006;2023-09-19T09:18:45;3.50;;;1.90;;
77085;SDS011;66014;53.134;18.006;2023-09-19T09:21:12;5.10;;;1.60;;
77085;SDS011;66014;53.134;18.006;2023-09-19T09:23:43;3.50;;;1.40;;
77085;SDS011;66014;53.134;18.006;2023-09-19T09:26:09;2.90;;;1.90;;
77085;SDS011;66014;53.134;18.006;2023-09-19T09:28:36;4.60;;;2.00;;
77085;SDS011;66014;53.134;18.006;2023-09-19T09:31:24;4.10;;;1.70;;
77085;SDS011;66014;53.134;18.006;2023-09-19T09:33:54;4.00;;;1.70;;
77085;SDS011;66014;53.134;18.006;2023-09-19T09:36:35;4.10;;;1.80;;
77085;SDS011;66014;53.134;18.006;2023-09-19T09:39:03;4.80;;;1.90;;
77085;SDS011;66014;53.134;18.006;2023-09-19T09:41:50;3.00;;;1.50;;
77085;SDS011;66014;53.134;18.006;2023-09-19T09:44:18;3.30;;;1.70;;
77085;SDS011;66014;53.134;18.006;2023-09-19T09:46:46;7.40;;;2.00;;
77085;SDS011;66014;53.134;18.006;2023-09-19T09:49:23;4.60;;;1.90;;
77085;SDS011;66014;53.134;18.006;2023-09-19T09:52:03;4.30;;;1.80;;
77085;SDS011;66014;53.134;18.006;2023-09-19T09:57:33;3.90;;;1.50;;
77085;SDS011;66014;53.134;18.006;2023-09-19T10:00:01;4.30;;;1.70;;
77085;SDS011;66014;53.134;18.006;2023-09-19T10:02:38;3.30;;;1.60;;
77085;SDS011;66014;53.134;18.006;2023-09-19T10:07:53;4.50;;;1.40;;
77085;SDS011;66014;53.134;18.006;2023-09-19T10:10:30;4.00;;;1.40;;
77085;SDS011;66014;53.134;18.006;2023-09-19T10:13:10;2.40;;;1.30;;
77085;SDS011;66014;53.134;18.006;2023-09-19T10:15:48;3.20;;;1.20;;
77085;SDS011;66014;53.134;18.006;2023-09-19T10:18:24;3.50;;;1.20;;
77085;SDS011;66014;53.134;18.006;2023-09-19T10:20:51;4.70;;;2.00;;
77085;SDS011;66014;53.134;18.006;2023-09-19T10:23:19;3.60;;;1.80;;
77085;SDS011;66014;53.134;18.006;2023-09-19T10:25:52;2.90;;;1.30;;
77085;SDS011;66014;53.134;18.006;2023-09-19T10:28:21;4.10;;;1.50;;
77085;SDS011;66014;53.134;18.006;2023-09-19T10:30:49;2.70;;;1.50;;
77085;SDS011;66014;53.134;18.006;2023-09-19T10:33:18;2.50;;;1.30;;
77085;SDS011;66014;53.134;18.006;2023-09-19T10:35:50;2.60;;;1.30;;
77085;SDS011;66014;53.134;18.006;2023-09-19T10:38:26;2.60;;;1.40;;
77085;SDS011;66014;53.134;18.006;2023-09-19T10:40:56;3.20;;;1.60;;
77085;SDS011;66014;53.134;18.006;2023-09-19T10:43:29;4.10;;;1.30;;
77085;SDS011;66014;53.134;18.006;2023-09-19T10:46:03;4.90;;;1.80;;
77085;SDS011;66014;53.134;18.006;2023-09-19T10:48:39;3.00;;;1.20;;
77085;SDS011;66014;53.134;18.006;2023-09-19T10:51:14;6.30;;;1.60;;
77085;SDS011;66014;53.134;18.006;2023-09-19T10:53:55;5.80;;;1.40;;
77085;SDS011;66014;53.134;18.006;2023-09-19T10:56:34;4.20;;;1.30;;
77085;SDS011;66014;53.134;18.006;2023-09-19T11:01:41;4.20;;;1.30;;
77085;SDS011;66014;53.134;18.006;2023-09-19T11:07:01;3.00;;;1.30;;
77085;SDS011;66014;53.134;18.006;2023-09-19T11:09:43;2.70;;;1.30;;
77085;SDS011;66014;53.134;18.006;2023-09-19T11:12:12;3.20;;;1.40;;
77085;SDS011;66014;53.134;18.006;2023-09-19T11:15:07;3.70;;;1.10;;
77085;SDS011;66014;53.134;18.006;2023-09-19T11:17:43;5.20;;;1.30;;
77085;SDS011;66014;53.134;18.006;2023-09-19T11:20:18;4.10;;;1.30;;
77085;SDS011;66014;53.134;18.006;2023-09-19T11:30:45;3.90;;;1.20;;
77085;SDS011;66014;53.134;18.006;2023-09-19T11:33:16;2.90;;;1.40;;
77085;SDS011;66014;53.134;18.006;2023-09-19T11:43:52;3.10;;;1.30;;
77085;SDS011;66014;53.134;18.006;2023-09-19T11:46:26;2.90;;;1.40;;
77085;SDS011;66014;53.134;18.006;2023-09-19T11:48:54;9.10;;;2.00;;
77085;SDS011;66014;53.134;18.006;2023-09-19T11:51:23;4.60;;;1.20;;
77085;SDS011;66014;53.134;18.006;2023-09-19T11:53:54;3.50;;;1.50;;
77085;SDS011;66014;53.134;18.006;2023-09-19T11:56:23;4.10;;;1.30;;
77085;SDS011;66014;53.134;18.006;2023-09-19T11:58:52;4.10;;;1.20;;
77085;SDS011;66014;53.134;18.006;2023-09-19T12:01:24;2.80;;;1.10;;
77085;SDS011;66014;53.134;18.006;2023-09-19T12:04:00;2.20;;;1.00;;
77085;SDS011;66014;53.134;18.006;2023-09-19T12:06:28;3.30;;;1.30;;
77085;SDS011;66014;53.134;18.006;2023-09-19T12:08:56;4.60;;;1.20;;
77085;SDS011;66014;53.134;18.006;2023-09-19T12:11:28;2.50;;;1.00;;
77085;SDS011;66014;53.134;18.006;2023-09-19T12:13:59;2.70;;;1.10;;
77085;SDS011;66014;53.134;18.006;2023-09-19T12:16:30;3.50;;;1.30;;
77085;SDS011;66014;53.134;18.006;2023-09-19T12:18:57;3.70;;;1.20;;
77085;SDS011;66014;53.134;18.006;2023-09-19T12:21:28;4.30;;;1.30;;
77085;SDS011;66014;53.134;18.006;2023-09-19T12:26:41;3.30;;;1.30;;
77085;SDS011;66014;53.134;18.006;2023-09-19T12:29:13;3.40;;;1.10;;
77085;SDS011;66014;53.134;18.006;2023-09-19T12:31:51;5.10;;;1.20;;
77085;SDS011;66014;53.134;18.006;2023-09-19T12:34:24;3.20;;;1.20;;
77085;SDS011;66014;53.134;18.006;2023-09-19T12:39:48;3.60;;;1.30;;
77085;SDS011;66014;53.134;18.006;2023-09-19T12:44:46;4.20;;;1.10;;
77085;SDS011;66014;53.134;18.006;2023-09-19T12:47:15;3.40;;;1.30;;
77085;SDS011;66014;53.134;18.006;2023-09-19T12:52:40;4.00;;;1.40;;
77085;SDS011;66014;53.134;18.006;2023-09-19T12:55:19;4.80;;;1.50;;
77085;SDS011;66014;53.134;18.006;2023-09-19T12:58:08;2.90;;;1.30;;
77085;SDS011;66014;53.134;18.006;2023-09-19T13:00:39;2.90;;;1.30;;
77085;SDS011;66014;53.134;18.006;2023-09-19T13:03:18;3.10;;;1.10;;
77085;SDS011;66014;53.134;18.006;2023-09-19T13:05:56;3.10;;;1.40;;
77085;SDS011;66014;53.134;18.006;2023-09-19T13:08:24;2.20;;;1.10;;
77085;SDS011;66014;53.134;18.006;2023-09-19T13:11:14;3.30;;;1.40;;
77085;SDS011;66014;53.134;18.006;2023-09-19T13:13:46;4.20;;;1.50;;
77085;SDS011;66014;53.134;18.006;2023-09-19T13:16:21;3.30;;;1.40;;
77085;SDS011;66014;53.134;18.006;2023-09-19T13:18:54;3.60;;;1.20;;
77085;SDS011;66014;53.134;18.006;2023-09-19T13:21:32;4.60;;;1.30;;
77085;SDS011;66014;53.134;18.006;2023-09-19T13:24:22;3.80;;;1.30;;
77085;SDS011;66014;53.134;18.006;2023-09-19T13:26:58;3.20;;;1.40;;
77085;SDS011;66014;53.134;18.006;2023-09-19T13:29:34;3.40;;;1.50;;
77085;SDS011;66014;53.134;18.006;2023-09-19T13:32:00;4.80;;;1.40;;
77085;SDS011;66014;53.134;18.006;2023-09-19T13:34:28;5.60;;;1.60;;
77085;SDS011;66014;53.134;18.006;2023-09-19T13:36:55;3.40;;;1.40;;
77085;SDS011;66014;53.134;18.006;2023-09-19T13:39:22;3.30;;;1.50;;
77085;SDS011;66014;53.134;18.006;2023-09-19T13:41:50;3.50;;;1.50;;
77085;SDS011;66014;53.134;18.006;2023-09-19T13:44:17;5.10;;;1.50;;
77085;SDS011;66014;53.134;18.006;2023-09-19T13:46:44;4.50;;;1.60;;
77085;SDS011;66014;53.134;18.006;2023-09-19T13:49:15;4.20;;;1.90;;
77085;SDS011;66014;53.134;18.006;2023-09-19T13:51:44;3.30;;;1.80;;
77085;SDS011;66014;53.134;18.006;2023-09-19T13:54:13;4.00;;;1.40;;
77085;SDS011;66014;53.134;18.006;2023-09-19T13:56:42;3.20;;;1.60;;
77085;SDS011;66014;53.134;18.006;2023-09-19T13:59:09;3.90;;;1.90;;
77085;SDS011;66014;53.134;18.006;2023-09-19T14:01:36;4.70;;;1.60;;
77085;SDS011;66014;53.134;18.006;2023-09-19T14:04:02;5.20;;;1.80;;
77085;SDS011;66014;53.134;18.006;2023-09-19T14:06:29;4.60;;;1.50;;
77085;SDS011;66014;53.134;18.006;2023-09-19T14:08:55;4.10;;;1.70;;
77085;SDS011;66014;53.134;18.006;2023-09-19T14:11:22;3.70;;;1.50;;
77085;SDS011;66014;53.134;18.006;2023-09-19T14:13:48;5.90;;;1.90;;
77085;SDS011;66014;53.134;18.006;2023-09-19T14:16:15;4.50;;;1.80;;
77085;SDS011;66014;53.134;18.006;2023-09-19T14:18:42;4.20;;;1.70;;
77085;SDS011;66014;53.134;18.006;2023-09-19T14:21:12;3.60;;;1.60;;
77085;SDS011;66014;53.134;18.006;2023-09-19T14:23:38;3.80;;;2.00;;
77085;SDS011;66014;53.134;18.006;2023-09-19T14:26:05;3.90;;;1.80;;
77085;SDS011;66014;53.134;18.006;2023-09-19T14:28:32;4.40;;;1.90;;
77085;SDS011;66014;53.134;18.006;2023-09-19T14:31:09;3.10;;;1.60;;
77085;SDS011;66014;53.134;18.006;2023-09-19T14:33:37;3.10;;;1.70;;
77085;SDS011;66014;53.134;18.006;2023-09-19T14:36:07;4.40;;;2.00;;
77085;SDS011;66014;53.134;18.006;2023-09-19T14:38:37;4.00;;;1.70;;
77085;SDS011;66014;53.134;18.006;2023-09-19T14:41:04;4.00;;;1.90;;
77085;SDS011;66014;53.134;18.006;2023-09-19T14:43:32;4.90;;;2.10;;
77085;SDS011;66014;53.134;18.006;2023-09-19T14:46:08;4.20;;;1.80;;
77085;SDS011;66014;53.134;18.006;2023-09-19T14:48:36;6.00;;;2.30;;
77085;SDS011;66014;53.134;18.006;2023-09-19T14:51:03;4.80;;;1.80;;
77085;SDS011;66014;53.134;18.006;2023-09-19T14:53:31;4.90;;;1.90;;
77085;SDS011;66014;53.134;18.006;2023-09-19T14:56:01;4.70;;;2.10;;
77085;SDS011;66014;53.134;18.006;2023-09-19T14:58:31;3.90;;;2.00;;
77085;SDS011;66014;53.134;18.006;2023-09-19T15:03:36;4.50;;;1.70;;
77085;SDS011;66014;53.134;18.006;2023-09-19T15:06:06;4.00;;;1.80;;
77085;SDS011;66014;53.134;18.006;2023-09-19T15:08:35;4.40;;;1.90;;
77085;SDS011;66014;53.134;18.006;2023-09-19T15:11:04;3.40;;;1.70;;
77085;SDS011;66014;53.134;18.006;2023-09-19T15:13:31;2.90;;;1.50;;
77085;SDS011;66014;53.134;18.006;2023-09-19T15:15:59;4.60;;;2.10;;
77085;SDS011;66014;53.134;18.006;2023-09-19T15:18:30;4.30;;;1.70;;
77085;SDS011;66014;53.134;18.006;2023-09-19T15:21:01;4.00;;;1.90;;
77085;SDS011;66014;53.134;18.006;2023-09-19T15:23:27;4.50;;;1.90;;
77085;SDS011;66014;53.134;18.006;2023-09-19T15:25:55;6.50;;;2.10;;
77085;SDS011;66014;53.134;18.006;2023-09-19T15:28:22;4.10;;;1.80;;
77085;SDS011;66014;53.134;18.006;2023-09-19T15:30:49;5.20;;;2.20;;
77085;SDS011;66014;53.134;18.006;2023-09-19T15:33:16;3.50;;;1.90;;
77085;SDS011;66014;53.134;18.006;2023-09-19T15:35:43;4.30;;;2.10;;
77085;SDS011;66014;53.134;18.006;2023-09-19T15:38:10;4.30;;;2.10;;
77085;SDS011;66014;53.134;18.006;2023-09-19T15:40:45;5.60;;;2.10;;
77085;SDS011;66014;53.134;18.006;2023-09-19T15:43:12;4.80;;;2.10;;
77085;SDS011;66014;53.134;18.006;2023-09-19T15:45:39;4.50;;;2.10;;
77085;SDS011;66014;53.134;18.006;2023-09-19T15:48:05;4.70;;;2.20;;
77085;SDS011;66014;53.134;18.006;2023-09-19T15:50:32;3.90;;;2.00;;
77085;SDS011;66014;53.134;18.006;2023-09-19T15:52:58;3.50;;;1.80;;
77085;SDS011;66014;53.134;18.006;2023-09-19T15:55:25;5.00;;;2.10;;
77085;SDS011;66014;53.134;18.006;2023-09-19T15:57:52;4.50;;;2.10;;
77085;SDS011;66014;53.134;18.006;2023-09-19T16:00:19;6.00;;;1.60;;
77085;SDS011;66014;53.134;18.006;2023-09-19T16:02:46;3.70;;;1.80;;
77085;SDS011;66014;53.134;18.006;2023-09-19T16:05:15;4.90;;;1.60;;
77085;SDS011;66014;53.134;18.006;2023-09-19T16:07:41;4.60;;;2.20;;
77085;SDS011;66014;53.134;18.006;2023-09-19T16:10:08;3.70;;;2.00;;
77085;SDS011;66014;53.134;18.006;2023-09-19T16:12:34;3.90;;;1.60;;
77085;SDS011;66014;53.134;18.006;2023-09-19T16:15:01;4.90;;;2.10;;
77085;SDS011;66014;53.134;18.006;2023-09-19T16:17:28;5.40;;;2.20;;
77085;SDS011;66014;53.134;18.006;2023-09-19T16:19:54;4.90;;;2.50;;
77085;SDS011;66014;53.134;18.006;2023-09-19T16:22:21;4.50;;;2.10;;
77085;SDS011;66014;53.134;18.006;2023-09-19T16:24:47;4.30;;;2.00;;
77085;SDS011;66014;53.134;18.006;2023-09-19T16:27:14;4.70;;;1.90;;
77085;SDS011;66014;53.134;18.006;2023-09-19T16:29:41;4.80;;;2.10;;
77085;SDS011;66014;53.134;18.006;2023-09-19T16:32:08;4.40;;;2.10;;